sensor_id;sensor_type;location;lat;lon;timestamp;P1;durP1;ratioP1;P2;durP2;ratioP2
32505;SDS011;18955;51.224;8.482;2024-01-06T00:00:23;0.20;;;0.20;;
32505;SDS011;18955;51.224;8.482;2024-01-06T00:02:49;0.30;;;0.30;;
32505;SDS011;18955;51.224;8.482;2024-01-06T00:05:15;0.47;;;0.30;;
32505;SDS011;18955;51.224;8.482;2024-01-06T00:07:42;0.40;;;0.40;;
32505;SDS011;18955;51.224;8.482;2024-01-06T00:10:08;0.30;;;0.30;;
32505;SDS011;18955;51.224;8.482;2024-01-06T00:12:34;0.30;;;0.30;;
32505;SDS011;18955;51.224;8.482;2024-01-06T00:15:01;0.40;;;0.40;;
32505;SDS011;18955;51.224;8.482;2024-01-06T00:19:54;0.30;;;0.30;;
32505;SDS011;18955;51.224;8.482;2024-01-06T00:22:20;1.48;;;0.65;;
32505;SDS011;18955;51.224;8.482;2024-01-06T00:24:46;3.13;;;0.40;;
32505;SDS011;18955;51.224;8.482;2024-01-06T00:27:13;0.60;;;0.50;;
32505;SDS011;18955;51.224;8.482;2024-01-06T00:29:41;0.40;;;0.30;;
32505;SDS011;18955;51.224;8.482;2024-01-06T00:32:08;0.77;;;0.40;;
32505;SDS011;18955;51.224;8.482;2024-01-06T00:34:34;0.45;;;0.45;;
32505;SDS011;18955;51.224;8.482;2024-01-06T00:37:00;0.40;;;0.40;;
32505;SDS011;18955;51.224;8.482;2024-01-06T00:39:26;0.40;;;0.40;;
32505;SDS011;18955;51.224;8.482;2024-01-06T00:41:53;1.15;;;0.50;;
32505;SDS011;18955;51.224;8.482;2024-01-06T00:44:19;0.68;;;0.63;;
32505;SDS011;18955;51.224;8.482;2024-01-06T00:46:45;1.10;;;0.60;;
32505;SDS011;18955;51.224;8.482;2024-01-06T00:49:11;0.50;;;0.50;;
32505;SDS011;18955;51.224;8.482;2024-01-06T00:51:38;0.30;;;0.30;;
32505;SDS011;18955;51.224;8.482;2024-01-06T00:54:04;0.40;;;0.40;;
32505;SDS011;18955;51.224;8.482;2024-01-06T00:56:30;0.40;;;0.40;;
32505;SDS011;18955;51.224;8.482;2024-01-06T00:58:56;0.40;;;0.40;;
32505;SDS011;18955;51.224;8.482;2024-01-06T01:01:23;0.43;;;0.43;;
32505;SDS011;18955;51.224;8.482;2024-01-06T01:03:49;0.55;;;0.40;;
32505;SDS011;18955;51.224;8.482;2024-01-06T01:06:15;1.77;;;0.60;;
32505;SDS011;18955;51.224;8.482;2024-01-06T01:08:41;0.75;;;0.40;;
32505;SDS011;18955;51.224;8.482;2024-01-06T01:11:08;0.95;;;0.50;;
32505;SDS011;18955;51.224;8.482;2024-01-06T01:13:34;0.50;;;0.50;;
32505;SDS011;18955;51.224;8.482;2024-01-06T01:16:00;0.50;;;0.50;;
32505;SDS011;18955;51.224;8.482;2024-01-06T01:18:26;0.50;;;0.50;;
32505;SDS011;18955;51.224;8.482;2024-01-06T01:20:53;0.60;;;0.60;;
32505;SDS011;18955;51.224;8.482;2024-01-06T01:23:19;0.50;;;0.50;;
32505;SDS011;18955;51.224;8.482;2024-01-06T01:25:45;0.60;;;0.60;;
32505;SDS011;18955;51.224;8.482;2024-01-06T01:28:12;1.48;;;0.52;;
32505;SDS011;18955;51.224;8.482;2024-01-06T01:30:38;0.70;;;0.70;;
32505;SDS011;18955;51.224;8.482;2024-01-06T01:33:05;0.60;;;0.50;;
32505;SDS011;18955;51.224;8.482;2024-01-06T01:35:31;0.88;;;0.60;;
32505;SDS011;18955;51.224;8.482;2024-01-06T01:37:57;1.80;;;1.13;;
32505;SDS011;18955;51.224;8.482;2024-01-06T01:40:23;0.60;;;0.60;;
32505;SDS011;18955;51.224;8.482;2024-01-06T01:42:49;1.05;;;0.90;;
32505;SDS011;18955;51.224;8.482;2024-01-06T01:45:16;1.15;;;1.15;;
32505;SDS011;18955;51.224;8.482;2024-01-06T01:47:42;1.08;;;0.88;;
32505;SDS011;18955;51.224;8.482;2024-01-06T01:50:08;1.20;;;1.10;;
32505;SDS011;18955;51.224;8.482;2024-01-06T01:52:37;0.80;;;0.80;;
32505;SDS011;18955;51.224;8.482;2024-01-06T01:55:03;2.22;;;1.20;;
32505;SDS011;18955;51.224;8.482;2024-01-06T01:57:30;1.13;;;0.93;;
32505;SDS011;18955;51.224;8.482;2024-01-06T01:59:57;0.75;;;0.75;;
32505;SDS011;18955;51.224;8.482;2024-01-06T02:02:23;1.48;;;0.90;;
32505;SDS011;18955;51.224;8.482;2024-01-06T02:04:49;1.42;;;1.33;;
32505;SDS011;18955;51.224;8.482;2024-01-06T02:07:15;1.42;;;1.33;;
32505;SDS011;18955;51.224;8.482;2024-01-06T02:09:42;1.08;;;1.00;;
32505;SDS011;18955;51.224;8.482;2024-01-06T02:12:08;1.13;;;1.00;;
32505;SDS011;18955;51.224;8.482;2024-01-06T02:14:34;1.33;;;1.05;;
32505;SDS011;18955;51.224;8.482;2024-01-06T02:17:01;1.20;;;1.02;;
32505;SDS011;18955;51.224;8.482;2024-01-06T02:19:27;1.75;;;1.13;;
32505;SDS011;18955;51.224;8.482;2024-01-06T02:21:53;1.63;;;1.10;;
32505;SDS011;18955;51.224;8.482;2024-01-06T02:24:20;1.85;;;1.15;;
32505;SDS011;18955;51.224;8.482;2024-01-06T02:26:46;2.63;;;1.00;;
32505;SDS011;18955;51.224;8.482;2024-01-06T02:29:12;1.10;;;1.00;;
32505;SDS011;18955;51.224;8.482;2024-01-06T02:31:39;0.85;;;0.82;;
32505;SDS011;18955;51.224;8.482;2024-01-06T02:34:05;0.90;;;0.90;;
32505;SDS011;18955;51.224;8.482;2024-01-06T02:36:31;0.70;;;0.70;;
32505;SDS011;18955;51.224;8.482;2024-01-06T02:38:57;0.98;;;0.80;;
32505;SDS011;18955;51.224;8.482;2024-01-06T02:41:24;1.13;;;0.95;;
32505;SDS011;18955;51.224;8.482;2024-01-06T02:43:50;1.15;;;1.00;;
32505;SDS011;18955;51.224;8.482;2024-01-06T02:46:17;1.25;;;1.15;;
32505;SDS011;18955;51.224;8.482;2024-01-06T02:48:44;0.77;;;0.77;;
32505;SDS011;18955;51.224;8.482;2024-01-06T02:51:10;0.57;;;0.57;;
32505;SDS011;18955;51.224;8.482;2024-01-06T02:53:38;0.80;;;0.80;;
32505;SDS011;18955;51.224;8.482;2024-01-06T02:56:04;2.55;;;0.85;;
32505;SDS011;18955;51.224;8.482;2024-01-06T02:58:35;1.20;;;1.00;;
32505;SDS011;18955;51.224;8.482;2024-01-06T03:01:02;2.75;;;1.10;;
32505;SDS011;18955;51.224;8.482;2024-01-06T03:03:28;1.30;;;1.10;;
32505;SDS011;18955;51.224;8.482;2024-01-06T03:05:55;1.00;;;1.00;;
32505;SDS011;18955;51.224;8.482;2024-01-06T03:08:21;0.98;;;0.80;;
32505;SDS011;18955;51.224;8.482;2024-01-06T03:10:48;1.77;;;1.25;;
32505;SDS011;18955;51.224;8.482;2024-01-06T03:15:41;3.10;;;1.10;;
32505;SDS011;18955;51.224;8.482;2024-01-06T03:18:07;0.77;;;0.77;;
32505;SDS011;18955;51.224;8.482;2024-01-06T03:23:00;1.13;;;1.02;;
32505;SDS011;18955;51.224;8.482;2024-01-06T03:25:26;1.33;;;1.23;;
32505;SDS011;18955;51.224;8.482;2024-01-06T03:27:53;1.63;;;1.33;;
32505;SDS011;18955;51.224;8.482;2024-01-06T03:30:19;1.30;;;1.20;;
32505;SDS011;18955;51.224;8.482;2024-01-06T03:32:45;2.72;;;1.75;;
32505;SDS011;18955;51.224;8.482;2024-01-06T03:35:11;1.35;;;1.25;;
32505;SDS011;18955;51.224;8.482;2024-01-06T03:37:38;1.40;;;1.30;;
32505;SDS011;18955;51.224;8.482;2024-01-06T03:40:04;0.73;;;0.73;;
32505;SDS011;18955;51.224;8.482;2024-01-06T03:42:31;3.33;;;1.13;;
32505;SDS011;18955;51.224;8.482;2024-01-06T03:44:58;0.90;;;0.90;;
32505;SDS011;18955;51.224;8.482;2024-01-06T03:47:24;1.35;;;1.23;;
32505;SDS011;18955;51.224;8.482;2024-01-06T03:49:50;1.30;;;1.15;;
32505;SDS011;18955;51.224;8.482;2024-01-06T03:52:17;2.00;;;1.30;;
32505;SDS011;18955;51.224;8.482;2024-01-06T03:54:43;1.27;;;1.17;;
32505;SDS011;18955;51.224;8.482;2024-01-06T03:57:09;1.33;;;0.80;;
32505;SDS011;18955;51.224;8.482;2024-01-06T03:59:35;0.63;;;0.63;;
32505;SDS011;18955;51.224;8.482;2024-01-06T04:02:02;0.55;;;0.55;;
32505;SDS011;18955;51.224;8.482;2024-01-06T04:04:28;0.80;;;0.80;;
32505;SDS011;18955;51.224;8.482;2024-01-06T04:06:54;0.98;;;0.98;;
32505;SDS011;18955;51.224;8.482;2024-01-06T04:09:20;0.70;;;0.70;;
32505;SDS011;18955;51.224;8.482;2024-01-06T04:11:46;1.48;;;0.80;;
32505;SDS011;18955;51.224;8.482;2024-01-06T04:14:13;2.17;;;1.10;;
32505;SDS011;18955;51.224;8.482;2024-01-06T04:16:39;1.83;;;1.30;;
32505;SDS011;18955;51.224;8.482;2024-01-06T04:19:05;1.48;;;1.20;;
32505;SDS011;18955;51.224;8.482;2024-01-06T04:21:33;1.50;;;1.20;;
32505;SDS011;18955;51.224;8.482;2024-01-06T04:23:59;1.60;;;1.40;;
32505;SDS011;18955;51.224;8.482;2024-01-06T04:26:25;1.02;;;0.95;;
32505;SDS011;18955;51.224;8.482;2024-01-06T04:28:51;1.48;;;0.88;;
32505;SDS011;18955;51.224;8.482;2024-01-06T04:31:17;1.58;;;1.48;;
32505;SDS011;18955;51.224;8.482;2024-01-06T04:33:44;1.40;;;1.30;;
32505;SDS011;18955;51.224;8.482;2024-01-06T04:36:10;4.63;;;1.30;;
32505;SDS011;18955;51.224;8.482;2024-01-06T04:38:36;2.78;;;1.40;;
32505;SDS011;18955;51.224;8.482;2024-01-06T04:41:02;1.60;;;1.42;;
32505;SDS011;18955;51.224;8.482;2024-01-06T04:43:29;1.85;;;1.75;;
32505;SDS011;18955;51.224;8.482;2024-01-06T04:45:55;1.50;;;1.40;;
32505;SDS011;18955;51.224;8.482;2024-01-06T04:48:23;2.97;;;1.77;;
32505;SDS011;18955;51.224;8.482;2024-01-06T04:50:49;1.50;;;1.40;;
32505;SDS011;18955;51.224;8.482;2024-01-06T04:53:16;1.80;;;1.40;;
32505;SDS011;18955;51.224;8.482;2024-01-06T04:55:42;2.05;;;1.20;;
32505;SDS011;18955;51.224;8.482;2024-01-06T04:58:08;2.20;;;2.00;;
32505;SDS011;18955;51.224;8.482;2024-01-06T05:00:34;1.17;;;1.10;;
32505;SDS011;18955;51.224;8.482;2024-01-06T05:03:01;2.58;;;1.50;;
32505;SDS011;18955;51.224;8.482;2024-01-06T05:05:28;1.30;;;1.20;;
32505;SDS011;18955;51.224;8.482;2024-01-06T05:07:54;3.72;;;1.80;;
32505;SDS011;18955;51.224;8.482;2024-01-06T05:10:20;1.30;;;1.20;;
32505;SDS011;18955;51.224;8.482;2024-01-06T05:12:46;1.85;;;1.75;;
32505;SDS011;18955;51.224;8.482;2024-01-06T05:15:12;2.35;;;1.58;;
32505;SDS011;18955;51.224;8.482;2024-01-06T05:17:39;2.30;;;2.10;;
32505;SDS011;18955;51.224;8.482;2024-01-06T05:20:05;1.63;;;1.52;;
32505;SDS011;18955;51.224;8.482;2024-01-06T05:22:32;2.17;;;1.65;;
32505;SDS011;18955;51.224;8.482;2024-01-06T05:24:58;2.00;;;1.90;;
32505;SDS011;18955;51.224;8.482;2024-01-06T05:27:24;2.03;;;1.52;;
32505;SDS011;18955;51.224;8.482;2024-01-06T05:29:50;2.03;;;1.23;;
32505;SDS011;18955;51.224;8.482;2024-01-06T05:32:17;2.00;;;1.80;;
32505;SDS011;18955;51.224;8.482;2024-01-06T05:34:43;1.25;;;1.15;;
32505;SDS011;18955;51.224;8.482;2024-01-06T05:37:10;1.83;;;1.73;;
32505;SDS011;18955;51.224;8.482;2024-01-06T05:39:37;2.72;;;2.20;;
32505;SDS011;18955;51.224;8.482;2024-01-06T05:42:05;3.60;;;2.70;;
32505;SDS011;18955;51.224;8.482;2024-01-06T05:44:35;2.13;;;2.00;;
32505;SDS011;18955;51.224;8.482;2024-01-06T05:47:02;2.20;;;2.00;;
32505;SDS011;18955;51.224;8.482;2024-01-06T05:49:29;2.17;;;1.98;;
32505;SDS011;18955;51.224;8.482;2024-01-06T05:51:55;2.22;;;2.03;;
32505;SDS011;18955;51.224;8.482;2024-01-06T05:54:21;2.70;;;2.50;;
32505;SDS011;18955;51.224;8.482;2024-01-06T05:56:48;1.38;;;1.27;;
32505;SDS011;18955;51.224;8.482;2024-01-06T05:59:14;1.60;;;1.33;;
32505;SDS011;18955;51.224;8.482;2024-01-06T06:01:40;3.35;;;1.95;;
32505;SDS011;18955;51.224;8.482;2024-01-06T06:04:06;4.05;;;2.78;;
32505;SDS011;18955;51.224;8.482;2024-01-06T06:06:33;3.42;;;3.13;;
32505;SDS011;18955;51.224;8.482;2024-01-06T06:08:59;2.03;;;1.90;;
32505;SDS011;18955;51.224;8.482;2024-01-06T06:11:25;2.42;;;1.63;;
32505;SDS011;18955;51.224;8.482;2024-01-06T06:13:51;1.85;;;1.75;;
32505;SDS011;18955;51.224;8.482;2024-01-06T06:16:17;2.47;;;1.48;;
32505;SDS011;18955;51.224;8.482;2024-01-06T06:18:44;2.28;;;2.08;;
32505;SDS011;18955;51.224;8.482;2024-01-06T06:21:10;2.35;;;1.95;;
32505;SDS011;18955;51.224;8.482;2024-01-06T06:23:36;2.40;;;1.70;;
32505;SDS011;18955;51.224;8.482;2024-01-06T06:26:06;1.70;;;1.60;;
32505;SDS011;18955;51.224;8.482;2024-01-06T06:28:33;1.67;;;1.58;;
32505;SDS011;18955;51.224;8.482;2024-01-06T06:31:00;1.80;;;1.70;;
32505;SDS011;18955;51.224;8.482;2024-01-06T06:33:27;1.77;;;1.67;;
32505;SDS011;18955;51.224;8.482;2024-01-06T06:35:53;1.45;;;1.30;;
32505;SDS011;18955;51.224;8.482;2024-01-06T06:38:19;1.67;;;1.55;;
32505;SDS011;18955;51.224;8.482;2024-01-06T06:40:47;5.32;;;4.38;;
32505;SDS011;18955;51.224;8.482;2024-01-06T06:43:13;2.17;;;1.98;;
32505;SDS011;18955;51.224;8.482;2024-01-06T06:48:06;1.90;;;1.80;;
32505;SDS011;18955;51.224;8.482;2024-01-06T06:50:32;2.50;;;2.30;;
32505;SDS011;18955;51.224;8.482;2024-01-06T06:52:59;2.10;;;1.92;;
32505;SDS011;18955;51.224;8.482;2024-01-06T06:55:26;2.65;;;1.85;;
32505;SDS011;18955;51.224;8.482;2024-01-06T06:57:53;2.17;;;1.92;;
32505;SDS011;18955;51.224;8.482;2024-01-06T07:00:19;2.30;;;2.10;;
32505;SDS011;18955;51.224;8.482;2024-01-06T07:02:46;4.60;;;2.00;;
32505;SDS011;18955;51.224;8.482;2024-01-06T07:05:13;2.30;;;2.10;;
32505;SDS011;18955;51.224;8.482;2024-01-06T07:07:39;2.67;;;1.70;;
32505;SDS011;18955;51.224;8.482;2024-01-06T07:10:06;2.72;;;2.30;;
32505;SDS011;18955;51.224;8.482;2024-01-06T07:12:32;2.10;;;1.90;;
32505;SDS011;18955;51.224;8.482;2024-01-06T07:14:59;2.10;;;2.00;;
32505;SDS011;18955;51.224;8.482;2024-01-06T07:17:25;2.13;;;1.90;;
32505;SDS011;18955;51.224;8.482;2024-01-06T07:19:51;3.10;;;2.28;;
32505;SDS011;18955;51.224;8.482;2024-01-06T07:22:17;2.17;;;1.98;;
32505;SDS011;18955;51.224;8.482;2024-01-06T07:24:44;1.88;;;1.77;;
32505;SDS011;18955;51.224;8.482;2024-01-06T07:27:10;2.10;;;1.95;;
32505;SDS011;18955;51.224;8.482;2024-01-06T07:29:36;1.73;;;1.63;;
32505;SDS011;18955;51.224;8.482;2024-01-06T07:32:04;2.63;;;2.20;;
32505;SDS011;18955;51.224;8.482;2024-01-06T07:34:32;2.35;;;1.80;;
32505;SDS011;18955;51.224;8.482;2024-01-06T07:39:25;2.50;;;2.30;;
32505;SDS011;18955;51.224;8.482;2024-01-06T07:41:51;3.38;;;2.28;;
32505;SDS011;18955;51.224;8.482;2024-01-06T07:44:17;1.95;;;1.75;;
32505;SDS011;18955;51.224;8.482;2024-01-06T07:46:50;2.08;;;1.98;;
32505;SDS011;18955;51.224;8.482;2024-01-06T07:49:17;2.25;;;2.05;;
32505;SDS011;18955;51.224;8.482;2024-01-06T07:51:43;2.03;;;1.92;;
32505;SDS011;18955;51.224;8.482;2024-01-06T07:54:09;2.50;;;2.30;;
32505;SDS011;18955;51.224;8.482;2024-01-06T07:56:37;2.00;;;1.90;;
32505;SDS011;18955;51.224;8.482;2024-01-06T07:59:04;3.20;;;2.53;;
32505;SDS011;18955;51.224;8.482;2024-01-06T08:01:30;2.22;;;2.03;;
32505;SDS011;18955;51.224;8.482;2024-01-06T08:03:58;4.35;;;2.20;;
32505;SDS011;18955;51.224;8.482;2024-01-06T08:06:25;2.58;;;1.83;;
32505;SDS011;18955;51.224;8.482;2024-01-06T08:08:51;1.67;;;1.58;;
32505;SDS011;18955;51.224;8.482;2024-01-06T08:11:18;2.28;;;1.88;;
32505;SDS011;18955;51.224;8.482;2024-01-06T08:13:44;2.15;;;1.95;;
32505;SDS011;18955;51.224;8.482;2024-01-06T08:16:10;2.45;;;2.25;;
32505;SDS011;18955;51.224;8.482;2024-01-06T08:18:36;2.83;;;2.20;;
32505;SDS011;18955;51.224;8.482;2024-01-06T08:21:02;2.58;;;2.20;;
32505;SDS011;18955;51.224;8.482;2024-01-06T08:23:29;2.25;;;2.05;;
32505;SDS011;18955;51.224;8.482;2024-01-06T08:25:55;2.70;;;2.22;;
32505;SDS011;18955;51.224;8.482;2024-01-06T08:28:22;2.90;;;2.65;;
32505;SDS011;18955;51.224;8.482;2024-01-06T08:30:49;3.05;;;2.75;;
32505;SDS011;18955;51.224;8.482;2024-01-06T08:33:15;2.15;;;1.95;;
32505;SDS011;18955;51.224;8.482;2024-01-06T08:35:43;2.42;;;2.22;;
32505;SDS011;18955;51.224;8.482;2024-01-06T08:38:10;3.53;;;3.17;;
32505;SDS011;18955;51.224;8.482;2024-01-06T08:40:36;7.03;;;5.53;;
32505;SDS011;18955;51.224;8.482;2024-01-06T08:43:02;5.13;;;4.53;;
32505;SDS011;18955;51.224;8.482;2024-01-06T08:45:29;8.15;;;6.80;;
32505;SDS011;18955;51.224;8.482;2024-01-06T08:47:55;9.73;;;7.18;;
32505;SDS011;18955;51.224;8.482;2024-01-06T08:50:21;11.23;;;8.20;;
32505;SDS011;18955;51.224;8.482;2024-01-06T08:52:48;8.02;;;6.82;;
32505;SDS011;18955;51.224;8.482;2024-01-06T08:55:14;9.43;;;7.80;;
32505;SDS011;18955;51.224;8.482;2024-01-06T08:57:42;14.50;;;8.13;;
32505;SDS011;18955;51.224;8.482;2024-01-06T09:00:08;13.88;;;8.93;;
32505;SDS011;18955;51.224;8.482;2024-01-06T09:02:36;9.20;;;8.02;;
32505;SDS011;18955;51.224;8.482;2024-01-06T09:05:02;7.65;;;6.57;;
32505;SDS011;18955;51.224;8.482;2024-01-06T09:07:29;5.57;;;4.97;;
32505;SDS011;18955;51.224;8.482;2024-01-06T09:09:55;8.88;;;6.80;;
32505;SDS011;18955;51.224;8.482;2024-01-06T09:12:22;8.65;;;6.72;;
32505;SDS011;18955;51.224;8.482;2024-01-06T09:14:48;7.25;;;6.55;;
32505;SDS011;18955;51.224;8.482;2024-01-06T09:17:14;8.70;;;6.60;;
32505;SDS011;18955;51.224;8.482;2024-01-06T09:19:41;7.93;;;6.07;;
32505;SDS011;18955;51.224;8.482;2024-01-06T09:22:07;7.75;;;6.40;;
32505;SDS011;18955;51.224;8.482;2024-01-06T09:24:33;6.82;;;4.75;;
32505;SDS011;18955;51.224;8.482;2024-01-06T09:26:59;6.10;;;4.88;;
32505;SDS011;18955;51.224;8.482;2024-01-06T09:29:26;7.82;;;5.15;;
32505;SDS011;18955;51.224;8.482;2024-01-06T09:31:52;11.18;;;6.72;;
32505;SDS011;18955;51.224;8.482;2024-01-06T09:34:18;7.85;;;5.25;;
32505;SDS011;18955;51.224;8.482;2024-01-06T09:36:44;9.25;;;5.75;;
32505;SDS011;18955;51.224;8.482;2024-01-06T09:39:10;9.43;;;5.63;;
32505;SDS011;18955;51.224;8.482;2024-01-06T09:41:37;10.10;;;6.40;;
32505;SDS011;18955;51.224;8.482;2024-01-06T09:44:03;9.98;;;6.60;;
32505;SDS011;18955;51.224;8.482;2024-01-06T09:46:29;15.60;;;9.93;;
32505;SDS011;18955;51.224;8.482;2024-01-06T09:48:57;14.48;;;9.30;;
32505;SDS011;18955;51.224;8.482;2024-01-06T09:51:24;19.85;;;11.48;;
32505;SDS011;18955;51.224;8.482;2024-01-06T09:53:58;18.52;;;11.00;;
32505;SDS011;18955;51.224;8.482;2024-01-06T09:56:26;28.70;;;11.45;;
32505;SDS011;18955;51.224;8.482;2024-01-06T09:58:53;24.75;;;11.02;;
32505;SDS011;18955;51.224;8.482;2024-01-06T10:01:20;30.05;;;10.95;;
32505;SDS011;18955;51.224;8.482;2024-01-06T10:03:47;17.98;;;11.05;;
32505;SDS011;18955;51.224;8.482;2024-01-06T10:06:13;18.85;;;11.10;;
32505;SDS011;18955;51.224;8.482;2024-01-06T10:08:44;19.40;;;11.57;;
32505;SDS011;18955;51.224;8.482;2024-01-06T10:11:13;20.42;;;11.35;;
32505;SDS011;18955;51.224;8.482;2024-01-06T10:13:40;19.80;;;10.32;;
32505;SDS011;18955;51.224;8.482;2024-01-06T10:16:07;20.08;;;11.07;;
32505;SDS011;18955;51.224;8.482;2024-01-06T10:18:34;17.80;;;9.77;;
32505;SDS011;18955;51.224;8.482;2024-01-06T10:21:04;14.55;;;9.95;;
32505;SDS011;18955;51.224;8.482;2024-01-06T10:23:31;15.25;;;9.68;;
32505;SDS011;18955;51.224;8.482;2024-01-06T10:25:58;13.23;;;8.55;;
32505;SDS011;18955;51.224;8.482;2024-01-06T10:28:25;12.85;;;8.18;;
32505;SDS011;18955;51.224;8.482;2024-01-06T10:30:51;11.95;;;7.95;;
32505;SDS011;18955;51.224;8.482;2024-01-06T10:33:19;11.88;;;7.78;;
32505;SDS011;18955;51.224;8.482;2024-01-06T10:35:46;11.23;;;6.82;;
32505;SDS011;18955;51.224;8.482;2024-01-06T10:40:45;9.77;;;6.80;;
32505;SDS011;18955;51.224;8.482;2024-01-06T10:43:34;11.20;;;7.43;;
32505;SDS011;18955;51.224;8.482;2024-01-06T10:46:03;12.65;;;8.45;;
32505;SDS011;18955;51.224;8.482;2024-01-06T10:48:30;12.40;;;7.82;;
32505;SDS011;18955;51.224;8.482;2024-01-06T10:50:59;12.73;;;8.00;;
32505;SDS011;18955;51.224;8.482;2024-01-06T10:53:26;13.68;;;8.80;;
32505;SDS011;18955;51.224;8.482;2024-01-06T10:55:53;17.08;;;9.75;;
32505;SDS011;18955;51.224;8.482;2024-01-06T10:58:19;13.27;;;8.25;;
32505;SDS011;18955;51.224;8.482;2024-01-06T11:00:47;10.60;;;7.72;;
32505;SDS011;18955;51.224;8.482;2024-01-06T11:03:14;11.60;;;8.10;;
32505;SDS011;18955;51.224;8.482;2024-01-06T11:05:43;12.75;;;8.05;;
32505;SDS011;18955;51.224;8.482;2024-01-06T11:08:10;15.13;;;9.55;;
32505;SDS011;18955;51.224;8.482;2024-01-06T11:10:36;12.90;;;7.93;;
32505;SDS011;18955;51.224;8.482;2024-01-06T11:15:38;14.18;;;8.02;;
32505;SDS011;18955;51.224;8.482;2024-01-06T11:18:06;13.73;;;8.45;;
32505;SDS011;18955;51.224;8.482;2024-01-06T11:20:33;12.10;;;7.38;;
32505;SDS011;18955;51.224;8.482;2024-01-06T11:25:48;14.23;;;7.72;;
32505;SDS011;18955;51.224;8.482;2024-01-06T11:28:16;15.05;;;7.88;;
32505;SDS011;18955;51.224;8.482;2024-01-06T11:30:42;12.38;;;6.78;;
32505;SDS011;18955;51.224;8.482;2024-01-06T11:33:09;10.38;;;6.60;;
32505;SDS011;18955;51.224;8.482;2024-01-06T11:35:36;11.77;;;6.82;;
32505;SDS011;18955;51.224;8.482;2024-01-06T11:38:06;11.25;;;6.97;;
32505;SDS011;18955;51.224;8.482;2024-01-06T11:40:33;11.77;;;6.82;;
32505;SDS011;18955;51.224;8.482;2024-01-06T11:45:29;10.02;;;6.25;;
32505;SDS011;18955;51.224;8.482;2024-01-06T11:47:59;13.68;;;7.75;;
32505;SDS011;18955;51.224;8.482;2024-01-06T11:50:28;12.63;;;7.47;;
32505;SDS011;18955;51.224;8.482;2024-01-06T11:52:58;10.77;;;6.70;;
32505;SDS011;18955;51.224;8.482;2024-01-06T12:00:20;10.18;;;5.88;;
32505;SDS011;18955;51.224;8.482;2024-01-06T12:02:46;8.60;;;5.72;;
32505;SDS011;18955;51.224;8.482;2024-01-06T12:05:16;8.95;;;5.25;;
32505;SDS011;18955;51.224;8.482;2024-01-06T12:07:52;9.57;;;5.72;;
32505;SDS011;18955;51.224;8.482;2024-01-06T12:10:32;10.57;;;6.10;;
32505;SDS011;18955;51.224;8.482;2024-01-06T12:12:59;9.98;;;5.65;;
32505;SDS011;18955;51.224;8.482;2024-01-06T12:15:26;9.48;;;5.20;;
32505;SDS011;18955;51.224;8.482;2024-01-06T12:17:53;10.55;;;6.35;;
32505;SDS011;18955;51.224;8.482;2024-01-06T12:20:20;7.85;;;5.07;;
32505;SDS011;18955;51.224;8.482;2024-01-06T12:22:47;8.38;;;4.90;;
32505;SDS011;18955;51.224;8.482;2024-01-06T12:25:14;10.00;;;6.18;;
32505;SDS011;18955;51.224;8.482;2024-01-06T12:27:41;8.18;;;4.80;;
32505;SDS011;18955;51.224;8.482;2024-01-06T12:30:12;10.18;;;5.20;;
32505;SDS011;18955;51.224;8.482;2024-01-06T12:32:44;8.38;;;4.63;;
32505;SDS011;18955;51.224;8.482;2024-01-06T12:35:12;8.20;;;4.97;;
32505;SDS011;18955;51.224;8.482;2024-01-06T12:37:41;7.07;;;4.30;;
32505;SDS011;18955;51.224;8.482;2024-01-06T12:40:11;6.57;;;3.85;;
32505;SDS011;18955;51.224;8.482;2024-01-06T12:42:38;9.02;;;4.93;;
32505;SDS011;18955;51.224;8.482;2024-01-06T12:45:05;6.68;;;4.18;;
32505;SDS011;18955;51.224;8.482;2024-01-06T12:47:32;7.68;;;4.55;;
32505;SDS011;18955;51.224;8.482;2024-01-06T12:49:59;6.88;;;3.90;;
32505;SDS011;18955;51.224;8.482;2024-01-06T12:52:25;5.93;;;3.95;;
32505;SDS011;18955;51.224;8.482;2024-01-06T12:54:51;5.07;;;3.50;;
32505;SDS011;18955;51.224;8.482;2024-01-06T12:57:18;4.45;;;3.03;;
32505;SDS011;18955;51.224;8.482;2024-01-06T12:59:44;3.95;;;2.83;;
32505;SDS011;18955;51.224;8.482;2024-01-06T13:02:10;3.85;;;2.60;;
32505;SDS011;18955;51.224;8.482;2024-01-06T13:04:36;4.65;;;2.88;;
32505;SDS011;18955;51.224;8.482;2024-01-06T13:07:03;4.05;;;2.45;;
32505;SDS011;18955;51.224;8.482;2024-01-06T13:09:29;6.28;;;4.03;;
32505;SDS011;18955;51.224;8.482;2024-01-06T13:11:55;5.10;;;2.85;;
32505;SDS011;18955;51.224;8.482;2024-01-06T13:14:26;4.38;;;2.88;;
32505;SDS011;18955;51.224;8.482;2024-01-06T13:16:53;4.57;;;3.00;;
32505;SDS011;18955;51.224;8.482;2024-01-06T13:19:19;4.03;;;2.50;;
32505;SDS011;18955;51.224;8.482;2024-01-06T13:21:45;5.45;;;2.70;;
32505;SDS011;18955;51.224;8.482;2024-01-06T13:24:12;4.15;;;2.65;;
32505;SDS011;18955;51.224;8.482;2024-01-06T13:26:41;3.78;;;2.70;;
32505;SDS011;18955;51.224;8.482;2024-01-06T13:29:07;2.58;;;1.85;;
32505;SDS011;18955;51.224;8.482;2024-01-06T13:31:33;3.63;;;1.38;;
32505;SDS011;18955;51.224;8.482;2024-01-06T13:33:59;2.33;;;1.85;;
32505;SDS011;18955;51.224;8.482;2024-01-06T13:36:26;2.28;;;1.63;;
32505;SDS011;18955;51.224;8.482;2024-01-06T13:38:52;2.58;;;1.67;;
32505;SDS011;18955;51.224;8.482;2024-01-06T13:41:18;3.40;;;2.30;;
32505;SDS011;18955;51.224;8.482;2024-01-06T13:43:44;2.42;;;1.83;;
32505;SDS011;18955;51.224;8.482;2024-01-06T13:46:11;2.78;;;1.80;;
32505;SDS011;18955;51.224;8.482;2024-01-06T13:48:39;1.95;;;1.50;;
32505;SDS011;18955;51.224;8.482;2024-01-06T13:51:06;2.95;;;2.30;;
32505;SDS011;18955;51.224;8.482;2024-01-06T13:53:33;4.40;;;2.17;;
32505;SDS011;18955;51.224;8.482;2024-01-06T13:55:59;6.03;;;2.05;;
32505;SDS011;18955;51.224;8.482;2024-01-06T13:58:26;2.22;;;1.30;;
32505;SDS011;18955;51.224;8.482;2024-01-06T14:00:53;5.22;;;2.25;;
32505;SDS011;18955;51.224;8.482;2024-01-06T14:03:19;3.78;;;2.38;;
32505;SDS011;18955;51.224;8.482;2024-01-06T14:05:47;4.60;;;2.65;;
32505;SDS011;18955;51.224;8.482;2024-01-06T14:08:13;4.68;;;2.20;;
32505;SDS011;18955;51.224;8.482;2024-01-06T14:10:39;1.83;;;1.42;;
32505;SDS011;18955;51.224;8.482;2024-01-06T14:13:06;5.78;;;2.10;;
32505;SDS011;18955;51.224;8.482;2024-01-06T14:15:33;4.20;;;2.47;;
32505;SDS011;18955;51.224;8.482;2024-01-06T14:18:01;6.65;;;3.90;;
32505;SDS011;18955;51.224;8.482;2024-01-06T14:20:29;4.35;;;2.63;;
32505;SDS011;18955;51.224;8.482;2024-01-06T14:22:57;4.55;;;2.72;;
32505;SDS011;18955;51.224;8.482;2024-01-06T14:25:24;3.45;;;2.58;;
32505;SDS011;18955;51.224;8.482;2024-01-06T14:27:50;4.63;;;3.40;;
32505;SDS011;18955;51.224;8.482;2024-01-06T14:30:17;6.65;;;4.18;;
32505;SDS011;18955;51.224;8.482;2024-01-06T14:32:43;6.05;;;3.80;;
32505;SDS011;18955;51.224;8.482;2024-01-06T14:35:09;4.05;;;2.95;;
32505;SDS011;18955;51.224;8.482;2024-01-06T14:37:37;6.65;;;4.88;;
32505;SDS011;18955;51.224;8.482;2024-01-06T14:40:06;7.00;;;4.53;;
32505;SDS011;18955;51.224;8.482;2024-01-06T14:42:33;8.43;;;4.53;;
32505;SDS011;18955;51.224;8.482;2024-01-06T14:44:59;8.82;;;4.45;;
32505;SDS011;18955;51.224;8.482;2024-01-06T14:47:25;6.13;;;4.45;;
32505;SDS011;18955;51.224;8.482;2024-01-06T14:49:52;10.50;;;5.80;;
32505;SDS011;18955;51.224;8.482;2024-01-06T14:52:18;7.88;;;4.72;;
32505;SDS011;18955;51.224;8.482;2024-01-06T14:54:44;35.10;;;5.30;;
32505;SDS011;18955;51.224;8.482;2024-01-06T14:57:11;23.45;;;4.70;;
32505;SDS011;18955;51.224;8.482;2024-01-06T14:59:37;57.72;;;5.53;;
32505;SDS011;18955;51.224;8.482;2024-01-06T15:02:03;11.40;;;6.75;;
32505;SDS011;18955;51.224;8.482;2024-01-06T15:04:30;50.50;;;5.75;;
32505;SDS011;18955;51.224;8.482;2024-01-06T15:06:56;15.15;;;4.70;;
32505;SDS011;18955;51.224;8.482;2024-01-06T15:09:22;6.10;;;4.07;;